Nearby METAR Reports

 

KCRE - North Myrtle Bea, South Carolina, USA
Distance from station: SW 11mi, 18km
Updated: 04/20/2018 6:53pm
Clear
Clear
 Wind from SSE
Wind: SSE 8 mph , 13 km/h
Temperature: 57°F , 14°C
Dew Point: 39°F , 4°C
Humidity: 51%
Barometer: 30.28 inHg , 1025.4 hPa
Clouds: Clear
Visibility: 10 miles , 16 km
2018/04/20 22:53 KCRE 202253Z 16007KT 10SM CLR 14/04 A3028 RMK AO1 SLP254 T01440044
KCPC - Whiteville, North Carolina, USA
Distance from station: NNW 26mi, 42km
Updated: 04/20/2018 7:35pm
Clear
Clear
 Wind from calm
Wind: Calm
Temperature: 59°F , 15°C
Dew Point: 36°F , 2°C
Humidity: 42%
Barometer: 30.27 inHg , 1025.1 hPa
Clouds: Clear
Visibility: 10 miles , 16 km
2018/04/20 23:35 KCPC 202335Z AUTO 00000KT 10SM CLR 15/02 A3027 RMK AO2 T01500017
KMYR - Myrtle Beach, South Carolina, USA
Distance from station: SW 27mi, 43km
Updated: 04/20/2018 7:14pm
Few Clouds
Few Clouds
 Wind from SSE
Wind: SSE 7 mph , 11 km/h
Temperature: 57°F , 14°C
Dew Point: 41°F , 5°C
Humidity: 55%
Barometer: 30.29 inHg , 1025.7 hPa
Clouds: Few Clouds
Visibility: 10 miles , 16 km
Cloud details: Few Clouds 100 ft
2018/04/20 23:14 KMYR 202314Z 15006KT 10SM FEW001 14/05 A3029 RMK AO2
 
KSUT - Southport, North Carolina, USA
Distance from station: E 28mi, 45km
Updated: 04/20/2018 7:35pm
Clear
Clear
 Wind from calm
Wind: Calm
Temperature: 55°F , 13°C
Dew Point: 39°F , 4°C
Humidity: 55%
Barometer: 30.29 inHg , 1025.7 hPa
Clouds: Clear
Visibility: 10 miles , 16 km
2018/04/20 23:35 KSUT 202335Z AUTO 00000KT 10SM CLR 13/04 A3029 RMK AO2 T01280036
KHYW - Conway-Horry Cty, South Carolina, USA
Distance from station: WSW 32mi, 52km
Updated: 04/20/2018 7:35pm
Haze, Clear
Haze, Clear
 Wind from calm
Wind: Calm
Temperature: 55°F , 13°C
Dew Point: 41°F , 5°C
Humidity: 59%
Barometer: 30.29 inHg , 1025.7 hPa
Summary: Haze
Clouds: Clear
Visibility: 5 miles , 8 km
2018/04/20 23:35 KHYW 202335Z AUTO 00000KT 5SM HZ CLR 13/05 A3029 RMK AO2
KILM - Wilmington, North Carolina, USA
Distance from station: ENE 45mi, 72km
Updated: 04/20/2018 6:53pm
Clear
Clear
 Wind from SSE
Wind: SSE 6 mph , 9 km/h
Temperature: 59°F , 15°C
Dew Point: 37°F , 3°C
Humidity: 45%
Barometer: 30.28 inHg , 1025.4 hPa
Clouds: Clear
Visibility: 10 miles , 16 km
2018/04/20 22:53 KILM 202253Z AUTO 15005KT 10SM CLR 15/03 A3028 RMK AO2 SLP254 T01500033
 
KEYF - Elizabethtown, North Carolina, USA
Distance from station: N 47mi, 75km
Updated: 04/20/2018 7:35pm
Clear
Clear
 
Temperature: 63°F , 17°C
Dew Point: 30°F , -1°C
Humidity: 30%
Barometer: 30.28 inHg , 1025.4 hPa
Clouds: Clear
Visibility: 10 miles , 16 km
2018/04/20 23:35 KEYF 202335Z AUTO 10SM CLR 17/M01 A3028 RMK AO2 T01651014
KMAO - Marion, South Carolina, USA
Distance from station: WNW 47mi, 76km
Updated: 04/20/2018 7:35pm
Clear
Clear
 Wind from calm
Wind: Calm
Temperature: 61°F , 16°C
Dew Point: 36°F , 2°C
Humidity: 39%
Barometer: 30.28 inHg , 1025.4 hPa
Clouds: Clear
Visibility: 7 miles , 11 km
2018/04/20 23:35 KMAO 202335Z AUTO 00000KT 7SM CLR 16/02 A3028 RMK AO2
KLBT - Lumberton, North Carolina, USA
Distance from station: NNW 55mi, 88km
Updated: 04/20/2018 6:54pm
Clear
Clear
 Wind from varies
Wind: varies 5 mph , 7 km/h
Temperature: 64°F , 18°C
Dew Point: 30°F , -1°C
Humidity: 28%
Barometer: 30.27 inHg , 1025.1 hPa
Clouds: Clear
Visibility: 10 miles , 16 km
2018/04/20 22:54 KLBT 202254Z AUTO VRB04KT 10SM CLR 18/M01 A3027 RMK AO2 SLP249 T01831011
 
KGGE - Georgetown, South Carolina, USA
Distance from station: SW 60mi, 97km
Updated: 04/20/2018 7:35pm
Clear
Clear
 Wind from E
Wind: E 5 mph , 7 km/h
Temperature: 55°F , 13°C
Dew Point: 37°F , 3°C
Humidity: 51%
Barometer: 30.29 inHg , 1025.7 hPa
Clouds: Clear
Visibility: 10 miles , 16 km
2018/04/20 23:35 KGGE 202335Z AUTO 09004KT 10SM CLR 13/03 A3029 RMK AO2
KFLO - Florence, South Carolina, USA
Distance from station: WNW 69mi, 111km
Updated: 04/20/2018 6:53pm
Clear
Clear
 Wind from ENE
Wind: ENE 6 mph , 9 km/h
Temperature: 66°F , 19°C
Dew Point: 30°F , -1°C
Humidity: 26%
Barometer: 30.27 inHg , 1025.1 hPa
Clouds: Clear
Visibility: 10 miles , 16 km
2018/04/20 22:53 KFLO 202253Z AUTO 06005KT 10SM CLR 19/M01 A3027 RMK AO2 SLP249 T01941011
KCTZ - Clinton, North Carolina, USA
Distance from station: N 74mi, 119km
Updated: 04/20/2018 7:35pm
Clear
Clear
 Wind from calm
Wind: Calm
Temperature: 63°F , 17°C
Dew Point: 32°F , 0°C
Humidity: 32%
Barometer: 30.29 inHg , 1025.7 hPa
Clouds: Clear
Visibility: 10 miles , 16 km
2018/04/20 23:35 KCTZ 202335Z AUTO 00000KT 10SM CLR 17/00 A3029 RMK AO2 T01650004
 
KMEB - Maxton, North Carolina, USA
Distance from station: NW 75mi, 120km
Updated: 04/20/2018 6:52pm
Clear
Clear
 Wind from NE
Wind: NE 6 mph , 9 km/h
Temperature: 66°F , 19°C
Dew Point: 28°F , -2°C
Humidity: 24%
Barometer: 30.27 inHg , 1025.1 hPa
Clouds: Clear
Visibility: 10 miles , 16 km
2018/04/20 22:52 KMEB 202252Z AUTO 05005KT 10SM CLR 19/M02 A3027 RMK AO2 SLP251 T01891017
KCKI - Kingstree, South Carolina, USA
Distance from station: W 75mi, 121km
Updated: 04/20/2018 7:35pm
Clear
Clear
 Wind from calm
Wind: Calm
Temperature: 61°F , 16°C
Dew Point: 37°F , 3°C
Humidity: 42%
Barometer: 30.27 inHg , 1025.1 hPa
Clouds: Clear
Visibility: 10 miles , 16 km
2018/04/20 23:35 KCKI 202335Z AUTO 00000KT 10SM CLR 16/03 A3027 RMK AO2
KFAY - Fayetteville, North Carolina, USA
Distance from station: NNW 75mi, 121km
Updated: 04/20/2018 6:53pm
Clear
Clear
 Wind from ENE
Wind: ENE 5 mph , 7 km/h
Temperature: 64°F , 18°C
Dew Point: 28°F , -2°C
Humidity: 26%
Barometer: 30.26 inHg , 1024.7 hPa
Clouds: Clear
Visibility: 10 miles , 16 km
2018/04/20 22:53 KFAY 202253Z 06004KT 10SM CLR 18/M02 A3026 RMK AO2 SLP244 T01831017
 
KBBP - Marlboro Cnty, South Carolina, USA
Distance from station: NW 82mi, 132km
Updated: 04/20/2018 7:35pm
Clear
Clear
 Wind from calm
Wind: Calm
Temperature: 64°F , 18°C
Dew Point: 32°F , 0°C
Humidity: 30%
Barometer: 30.27 inHg , 1025.1 hPa
Clouds: Clear
Visibility: 10 miles , 16 km
2018/04/20 23:35 KBBP 202335Z AUTO 00000KT 10SM CLR 18/00 A3027 RMK AO2
KDPL - Kenansville/Dupl, North Carolina, USA
Distance from station: NNE 82mi, 132km
Updated: 04/20/2018 7:35pm
Clear
Clear
 Wind from calm
Wind: Calm
Temperature: 57°F , 14°C
Dew Point: 36°F , 2°C
Humidity: 44%
Barometer: 30.29 inHg , 1025.7 hPa
Clouds: Clear
Visibility: 10 miles , 16 km
2018/04/20 23:35 KDPL 202335Z AUTO 00000KT 10SM CLR 14/02 A3029 RMK AO2
KOAJ - Jacksonville, North Carolina, USA
Distance from station: NE 82mi, 132km
Updated: 04/20/2018 6:56pm
Clear
Clear
 Wind from N
Wind: N 5 mph , 7 km/h
Temperature: 63°F , 17°C
Dew Point: 30°F , -1°C
Humidity: 30%
Barometer: 30.29 inHg , 1025.7 hPa
Clouds: Clear
Visibility: 10 miles , 16 km
2018/04/20 22:56 KOAJ 202256Z AUTO 36004KT 10SM CLR 17/M01 A3029 RMK AO2 SLP262 T01671011
 
KUDG - Darlington Cnty, South Carolina, USA
Distance from station: WNW 83mi, 134km
Updated: 04/20/2018 6:56pm
Clear
Clear
 Wind from NNE
Wind: NNE 6 mph , 9 km/h
Temperature: 66°F , 19°C
Dew Point: 28°F , -2°C
Humidity: 24%
Barometer: 30.28 inHg , 1025.4 hPa
Clouds: Clear
Visibility: 10 miles , 16 km
2018/04/20 22:56 KUDG 202256Z AUTO 02005KT 10SM CLR 19/M02 A3028 RMK AO2 SLP259 T01891022
KNCA - New River Mcas, North Carolina, USA
Distance from station: NE 84mi, 135km
Updated: 04/20/2018 6:56pm
Clear
Clear
 Wind from N
Wind: N 9 mph , 15 km/h
Temperature: 63°F , 17°C
Dew Point: 28°F , -2°C
Humidity: 27%
Barometer: 30.28 inHg , 1025.4 hPa
Clouds: Clear
Visibility: 8 miles , 13 km
2018/04/20 22:56 KNCA 202256Z AUTO 36008KT 8SM CLR 17/M02 A3028 RMK AO2 SLP255 T01721022